Time;durP1;ratioP1;P1;durP2;ratioP2;P2;SDS_P1;SDS_P2;PMS_P1;PMS_P2;Temp;Humidity;BMP_temperature;BMP_pressure;BME280_temperature;BME280_humidity;BME280_pressure;Samples;Min_cycle;Max_cycle;Signal;HPM_P1;HPM_P2
2023/08/20 00:01:27;;;;;;;4.28;3.25;;;23.00;99.90;;;;;;4997030;28;20480;-38
2023/08/20 00:03:53;;;;;;;4.22;3.50;;;23.10;99.90;;;;;;5014722;28;20109;-41
2023/08/20 00:06:19;;;;;;;4.47;3.15;;;23.00;99.90;;;;;;5014535;28;20372;-39
2023/08/20 00:08:46;;;;;;;5.25;3.50;;;23.00;99.90;;;;;;5014499;28;20048;-39
2023/08/20 00:11:12;;;;;;;5.63;3.60;;;23.00;99.90;;;;;;5014366;28;20021;-43
2023/08/20 00:13:38;;;;;;;3.80;3.40;;;23.00;99.90;;;;;;5014513;28;20498;-42
2023/08/20 00:16:04;;;;;;;5.30;3.30;;;23.00;99.90;;;;;;5014436;28;20030;-40
2023/08/20 00:18:30;;;;;;;4.05;3.40;;;23.00;99.90;;;;;;5014443;28;20033;-42
2023/08/20 00:20:56;;;;;;;4.75;3.20;;;23.00;99.90;;;;;;5014523;28;20092;-40
2023/08/20 00:23:22;;;;;;;4.38;3.50;;;23.00;99.90;;;;;;5014422;28;20033;-42
2023/08/20 00:25:48;;;;;;;5.22;3.47;;;23.00;99.90;;;;;;5014184;28;20037;-41
2023/08/20 00:28:14;;;;;;;5.38;3.50;;;23.00;99.90;;;;;;5014193;28;20438;-36
2023/08/20 00:30:40;;;;;;;4.13;3.22;;;23.00;99.90;;;;;;5014067;28;20026;-44
2023/08/20 00:33:05;;;;;;;4.25;3.45;;;23.00;99.90;;;;;;5014312;28;20096;-44
2023/08/20 00:35:31;;;;;;;3.95;3.55;;;23.00;99.90;;;;;;5014161;28;20543;-38
2023/08/20 00:37:57;;;;;;;5.22;3.38;;;23.00;99.90;;;;;;5012987;28;20491;-43
2023/08/20 00:40:23;;;;;;;4.03;3.30;;;23.00;99.90;;;;;;5013144;28;20026;-40
2023/08/20 00:42:49;;;;;;;6.28;3.72;;;23.00;99.90;;;;;;5012949;28;20355;-42
2023/08/20 00:45:16;;;;;;;4.90;3.38;;;23.00;99.90;;;;;;5012808;28;20402;-38
2023/08/20 00:47:42;;;;;;;4.38;3.58;;;23.00;99.90;;;;;;5012831;28;20014;-39
2023/08/20 00:50:08;;;;;;;6.20;3.90;;;23.00;99.90;;;;;;5012610;28;20017;-47
2023/08/20 00:52:35;;;;;;;5.25;3.45;;;23.00;99.90;;;;;;5012820;28;20112;-44
2023/08/20 00:55:07;;;;;;;3.72;3.22;;;23.00;99.90;;;;;;5012766;28;20025;-42
2023/08/20 00:57:34;;;;;;;7.22;3.50;;;23.00;99.90;;;;;;5012963;28;20050;-38
2023/08/20 01:00:00;;;;;;;4.13;3.72;;;23.00;99.90;;;;;;4994857;28;20030;-42
2023/08/20 01:02:26;;;;;;;4.57;3.70;;;23.00;99.90;;;;;;5012620;28;20037;-40
2023/08/20 01:04:52;;;;;;;4.93;3.28;;;23.00;99.90;;;;;;5012656;28;20022;-42
2023/08/20 01:07:33;;;;;;;6.75;3.65;;;23.00;99.90;;;;;;5012277;28;20022;-41
2023/08/20 01:10:13;;;;;;;7.72;4.03;;;23.00;99.90;;;;;;5012449;28;20026;-38
2023/08/20 01:12:41;;;;;;;6.15;3.50;;;23.00;99.90;;;;;;5012516;28;20391;-40
2023/08/20 01:15:13;;;;;;;4.05;3.65;;;23.00;99.90;;;;;;5012477;28;20057;-40
2023/08/20 01:17:39;;;;;;;4.47;3.33;;;23.00;99.90;;;;;;5012411;28;20100;-42
2023/08/20 01:20:06;;;;;;;4.25;3.20;;;23.00;99.90;;;;;;5012039;28;20044;-39
2023/08/20 01:22:44;;;;;;;5.57;4.15;;;23.00;99.90;;;;;;5012377;28;20030;-41
2023/08/20 01:25:32;;;;;;;4.55;3.80;;;23.00;99.90;;;;;;5012161;28;20022;-49
2023/08/20 01:28:22;;;;;;;8.15;3.95;;;23.00;99.90;;;;;;5012233;28;20083;-44
2023/08/20 01:30:48;;;;;;;4.88;4.03;;;23.00;99.90;;;;;;5011984;28;20033;-43
2023/08/20 01:33:15;;;;;;;3.95;3.55;;;22.90;99.90;;;;;;5012129;28;20052;-39
2023/08/20 01:35:41;;;;;;;4.32;3.58;;;23.00;99.90;;;;;;5012067;28;20030;-40
2023/08/20 01:38:07;;;;;;;5.38;3.42;;;23.00;99.90;;;;;;4970103;28;1228274;-44
2023/08/20 01:40:33;;;;;;;5.68;3.80;;;22.90;99.90;;;;;;4995191;28;20034;-39
2023/08/20 01:42:59;;;;;;;3.53;3.22;;;22.90;99.90;;;;;;5012981;28;20030;-47
2023/08/20 01:45:26;;;;;;;3.97;3.47;;;22.90;99.90;;;;;;5012775;28;20080;-37
2023/08/20 01:47:51;;;;;;;4.55;3.35;;;22.90;99.90;;;;;;5012692;28;20372;-41
2023/08/20 01:50:17;;;;;;;4.72;3.63;;;22.90;99.90;;;;;;5012564;28;20096;-45
2023/08/20 01:52:43;;;;;;;4.30;3.88;;;22.90;99.90;;;;;;5012656;28;20109;-39
2023/08/20 01:55:08;;;;;;;5.05;3.80;;;22.90;99.90;;;;;;4994940;28;20026;-38
2023/08/20 01:57:34;;;;;;;4.43;3.75;;;22.90;99.90;;;;;;4994919;28;20041;-41
2023/08/20 02:00:00;;;;;;;4.88;3.38;;;22.90;99.90;;;;;;5012411;28;20102;-39
2023/08/20 02:02:26;;;;;;;5.15;4.10;;;22.90;99.90;;;;;;5012548;28;20029;-40
2023/08/20 02:04:51;;;;;;;4.97;3.60;;;23.00;99.90;;;;;;5012926;28;20026;-39
2023/08/20 02:07:17;;;;;;;4.32;3.60;;;22.90;99.90;;;;;;5013451;28;20029;-41
2023/08/20 02:09:43;;;;;;;3.65;3.30;;;22.90;99.90;;;;;;5012361;28;20074;-41
2023/08/20 02:12:08;;;;;;;5.32;4.00;;;22.90;99.90;;;;;;5011868;28;20026;-45
2023/08/20 02:14:35;;;;;;;6.97;3.90;;;22.90;99.90;;;;;;5012446;28;20392;-39
2023/08/20 02:17:04;;;;;;;4.07;3.40;;;22.90;99.90;;;;;;5012296;28;20026;-44
2023/08/20 02:19:30;;;;;;;4.07;3.45;;;22.80;99.90;;;;;;5011995;28;20033;-40
2023/08/20 02:21:55;;;;;;;6.47;4.13;;;22.90;99.90;;;;;;5012108;28;20398;-41
2023/08/20 02:24:21;;;;;;;4.38;3.78;;;22.90;99.90;;;;;;5012177;28;20032;-41
2023/08/20 02:26:47;;;;;;;4.30;3.78;;;22.90;99.90;;;;;;5012025;28;20053;-40
2023/08/20 02:29:12;;;;;;;4.05;3.60;;;22.90;99.90;;;;;;5011902;28;20471;-42
2023/08/20 02:31:38;;;;;;;6.20;3.80;;;22.90;99.90;;;;;;5012015;28;20053;-39
2023/08/20 02:34:03;;;;;;;6.28;3.75;;;22.90;99.90;;;;;;4994414;28;20037;-40
2023/08/20 02:36:29;;;;;;;4.70;3.83;;;22.90;99.90;;;;;;5011791;28;20030;-39
2023/08/20 02:38:55;;;;;;;4.78;3.85;;;22.90;99.90;;;;;;5011839;28;20048;-42
2023/08/20 02:41:20;;;;;;;3.90;3.28;;;22.90;99.90;;;;;;5011831;28;20446;-42
2023/08/20 02:43:46;;;;;;;4.03;3.63;;;22.80;99.90;;;;;;5011918;28;20442;-41
2023/08/20 02:46:12;;;;;;;5.07;3.78;;;22.80;99.90;;;;;;5012436;28;20395;-39
2023/08/20 02:48:37;;;;;;;5.03;3.53;;;22.80;99.90;;;;;;5011868;28;20294;-44
2023/08/20 02:51:03;;;;;;;4.30;3.60;;;22.80;99.90;;;;;;5012006;28;20072;-39
2023/08/20 02:53:29;;;;;;;4.13;3.70;;;22.80;99.90;;;;;;5011668;28;20030;-40
2023/08/20 02:55:56;;;;;;;6.25;4.18;;;22.90;99.90;;;;;;5011756;28;20032;-39
2023/08/20 02:58:22;;;;;;;4.20;3.65;;;22.90;99.90;;;;;;5011789;28;20026;-40
2023/08/20 03:00:47;;;;;;;4.18;3.78;;;22.80;99.90;;;;;;4994066;28;20033;-37
2023/08/20 03:03:13;;;;;;;3.70;3.40;;;22.80;99.90;;;;;;5011704;28;20034;-38
2023/08/20 03:05:39;;;;;;;5.70;3.88;;;22.80;99.90;;;;;;5011534;28;20033;-40
2023/08/20 03:08:06;;;;;;;4.60;3.80;;;22.80;99.90;;;;;;5011361;28;20041;-39
2023/08/20 03:10:32;;;;;;;4.13;3.50;;;22.80;99.90;;;;;;5011311;28;20021;-40
2023/08/20 03:13:02;;;;;;;4.90;3.95;;;22.80;99.90;;;;;;5011609;28;20499;-41
2023/08/20 03:15:29;;;;;;;4.53;3.70;;;22.80;99.90;;;;;;4994179;28;20049;-37
2023/08/20 03:17:55;;;;;;;6.38;3.20;;;22.80;99.90;;;;;;5011448;28;20026;-42
2023/08/20 03:20:20;;;;;;;5.75;3.97;;;22.80;99.90;;;;;;5011253;28;20024;-37
2023/08/20 03:22:46;;;;;;;3.97;3.47;;;22.80;99.90;;;;;;5011359;28;20034;-42
2023/08/20 03:25:11;;;;;;;6.28;3.72;;;22.80;99.90;;;;;;5014890;28;20089;-40
2023/08/20 03:27:37;;;;;;;4.90;3.40;;;22.80;99.90;;;;;;5015243;28;20121;-37
2023/08/20 03:30:04;;;;;;;4.13;3.58;;;22.80;99.90;;;;;;5015291;28;20025;-40
2023/08/20 03:32:29;;;;;;;5.03;3.70;;;22.80;99.90;;;;;;5015383;28;20088;-46
2023/08/20 03:34:55;;;;;;;5.85;3.55;;;22.80;99.90;;;;;;5015249;28;20495;-36
2023/08/20 03:37:22;;;;;;;5.38;3.53;;;22.80;99.90;;;;;;5015473;28;20092;-39
2023/08/20 03:39:47;;;;;;;3.88;3.55;;;22.80;99.90;;;;;;5014976;28;20053;-42
2023/08/20 03:42:13;;;;;;;5.18;3.53;;;22.80;99.90;;;;;;5015328;28;20562;-37
2023/08/20 03:44:39;;;;;;;5.28;3.90;;;22.80;99.90;;;;;;4997381;28;20037;-39
2023/08/20 03:47:05;;;;;;;5.28;3.75;;;22.80;99.90;;;;;;5014888;28;20034;-41
2023/08/20 03:49:30;;;;;;;6.88;3.53;;;22.80;99.90;;;;;;5014725;28;20037;-44
2023/08/20 03:51:56;;;;;;;4.20;3.70;;;22.80;99.90;;;;;;5014924;28;20355;-44
2023/08/20 03:54:21;;;;;;;5.95;4.05;;;22.80;99.90;;;;;;5014936;28;20030;-40
2023/08/20 03:56:47;;;;;;;4.25;3.33;;;22.80;99.90;;;;;;5014900;28;20025;-40
2023/08/20 03:59:13;;;;;;;5.10;3.65;;;22.80;99.90;;;;;;5014647;28;20506;-42
2023/08/20 04:01:39;;;;;;;7.78;4.25;;;22.80;99.90;;;;;;5014785;28;20037;-41
2023/08/20 04:04:05;;;;;;;5.90;4.05;;;22.80;99.90;;;;;;5014740;28;20185;-40
2023/08/20 04:06:30;;;;;;;4.97;3.80;;;22.70;99.90;;;;;;5014464;28;20510;-39
2023/08/20 04:08:56;;;;;;;4.53;3.53;;;22.80;99.90;;;;;;4996897;28;20472;-39
2023/08/20 04:11:21;;;;;;;5.00;3.92;;;22.80;99.90;;;;;;5014527;28;20156;-41
2023/08/20 04:13:47;;;;;;;7.63;4.15;;;22.80;99.90;;;;;;5014580;28;20022;-43
2023/08/20 04:16:13;;;;;;;6.32;4.03;;;22.70;99.90;;;;;;5014523;28;20392;-45
2023/08/20 04:18:39;;;;;;;5.30;3.85;;;22.70;99.90;;;;;;5014469;28;20105;-40
2023/08/20 04:21:05;;;;;;;4.30;3.53;;;22.70;99.90;;;;;;5014158;28;20538;-40
2023/08/20 04:23:31;;;;;;;4.72;4.03;;;22.70;99.90;;;;;;5014417;28;20022;-43
2023/08/20 04:25:56;;;;;;;3.97;3.58;;;22.80;99.90;;;;;;5014247;28;20109;-43
2023/08/20 04:28:22;;;;;;;5.82;3.80;;;22.70;99.90;;;;;;5014328;28;20113;-44
2023/08/20 04:30:49;;;;;;;4.18;3.65;;;22.70;99.90;;;;;;5014122;28;20057;-42
2023/08/20 04:33:14;;;;;;;4.38;3.63;;;22.70;99.90;;;;;;5014232;28;20068;-41
2023/08/20 04:35:40;;;;;;;3.92;3.63;;;22.70;99.90;;;;;;5013821;28;20030;-36
2023/08/20 04:38:05;;;;;;;4.50;3.58;;;22.70;99.90;;;;;;5014026;28;20482;-39
2023/08/20 04:40:31;;;;;;;5.35;3.63;;;22.70;99.90;;;;;;5013892;28;20640;-39
2023/08/20 04:42:57;;;;;;;4.20;3.40;;;22.70;99.90;;;;;;5014077;28;20029;-41
2023/08/20 04:45:22;;;;;;;3.63;3.30;;;22.70;99.90;;;;;;5013999;28;20034;-38
2023/08/20 04:47:48;;;;;;;4.15;3.67;;;22.70;99.90;;;;;;5013886;28;20018;-41
2023/08/20 04:50:14;;;;;;;7.22;3.65;;;22.70;99.90;;;;;;5013613;28;20088;-40
2023/08/20 04:52:40;;;;;;;4.47;3.40;;;22.70;99.90;;;;;;5013808;28;20026;-42
2023/08/20 04:55:07;;;;;;;7.60;3.60;;;22.70;99.90;;;;;;5013839;28;20584;-46
2023/08/20 04:57:33;;;;;;;6.10;3.85;;;22.70;99.90;;;;;;5013625;28;20045;-40
2023/08/20 04:59:58;;;;;;;5.50;3.72;;;22.70;99.90;;;;;;5013509;28;20030;-46
2023/08/20 05:02:24;;;;;;;6.93;4.07;;;22.70;99.90;;;;;;5013626;28;20025;-39
2023/08/20 05:04:50;;;;;;;4.80;3.38;;;22.70;99.90;;;;;;5013457;28;20442;-43
2023/08/20 05:07:16;;;;;;;6.97;3.95;;;22.70;99.90;;;;;;5013388;28;20121;-40
2023/08/20 05:09:41;;;;;;;6.10;3.70;;;22.60;99.90;;;;;;5013354;28;20029;-40
2023/08/20 05:12:07;;;;;;;5.97;3.65;;;22.70;99.90;;;;;;5013484;28;20128;-37
2023/08/20 05:14:33;;;;;;;4.32;3.58;;;22.70;99.90;;;;;;5013511;28;20022;-42
2023/08/20 05:16:59;;;;;;;5.85;3.90;;;22.70;99.90;;;;;;5013254;28;20075;-41
2023/08/20 05:19:24;;;;;;;3.85;3.45;;;22.70;99.90;;;;;;5013048;28;20410;-41
2023/08/20 05:21:50;;;;;;;3.92;3.60;;;22.70;99.90;;;;;;5013326;28;20448;-39
2023/08/20 05:24:16;;;;;;;5.07;3.60;;;22.70;99.90;;;;;;5013231;28;20030;-45
2023/08/20 05:26:41;;;;;;;3.63;3.33;;;22.60;99.90;;;;;;5013089;28;20546;-40
2023/08/20 05:29:07;;;;;;;5.93;4.15;;;22.70;99.90;;;;;;5012924;28;20021;-39
2023/08/20 05:31:33;;;;;;;5.30;3.60;;;22.70;99.90;;;;;;5013046;28;20113;-44
2023/08/20 05:33:59;;;;;;;4.28;3.72;;;22.60;99.90;;;;;;5012954;28;20030;-42
2023/08/20 05:36:24;;;;;;;10.82;3.95;;;22.60;99.90;;;;;;5012881;28;20057;-40
2023/08/20 05:38:50;;;;;;;5.22;3.78;;;22.70;99.90;;;;;;5012859;28;20392;-48
2023/08/20 05:41:16;;;;;;;5.38;3.70;;;22.60;99.90;;;;;;5012960;28;20100;-42
2023/08/20 05:43:41;;;;;;;4.07;3.67;;;22.60;99.90;;;;;;5013044;28;20124;-42
2023/08/20 05:46:07;;;;;;;6.32;3.90;;;22.60;99.90;;;;;;5011990;28;20026;-38
2023/08/20 05:48:33;;;;;;;4.30;3.90;;;22.60;99.90;;;;;;5012781;28;20084;-41
2023/08/20 05:50:58;;;;;;;4.65;4.15;;;22.60;99.90;;;;;;5012667;28;20079;-45
2023/08/20 05:53:24;;;;;;;5.90;4.13;;;22.60;99.90;;;;;;5012920;28;20026;-42
2023/08/20 05:55:50;;;;;;;7.15;4.00;;;22.60;99.90;;;;;;5012868;28;20468;-40
2023/08/20 05:58:15;;;;;;;8.98;4.10;;;22.60;99.90;;;;;;5012554;28;20754;-40
2023/08/20 06:00:41;;;;;;;5.80;3.55;;;22.70;99.90;;;;;;5012330;28;20032;-42
2023/08/20 06:03:07;;;;;;;5.20;3.88;;;22.60;99.90;;;;;;5012593;28;20108;-45
2023/08/20 06:05:33;;;;;;;4.65;3.90;;;22.70;99.90;;;;;;5012396;28;20084;-40
2023/08/20 06:07:59;;;;;;;4.43;3.90;;;22.70;99.90;;;;;;4994771;28;20077;-38
2023/08/20 06:10:25;;;;;;;4.15;3.60;;;22.70;99.90;;;;;;5012234;28;20026;-45
2023/08/20 06:12:50;;;;;;;4.18;3.70;;;22.70;99.90;;;;;;5012460;28;20025;-40
2023/08/20 06:15:16;;;;;;;4.40;4.00;;;22.70;99.90;;;;;;5012315;28;20057;-43
2023/08/20 06:17:41;;;;;;;4.22;3.70;;;22.60;99.90;;;;;;5012345;28;20030;-40
2023/08/20 06:20:08;;;;;;;4.45;3.67;;;22.70;99.90;;;;;;4994909;28;20116;-42
2023/08/20 06:22:34;;;;;;;4.50;3.63;;;22.70;99.90;;;;;;5012723;28;20444;-40
2023/08/20 06:25:00;;;;;;;4.55;3.92;;;22.70;99.90;;;;;;5012190;28;20116;-37
2023/08/20 06:27:25;;;;;;;5.47;3.45;;;22.70;99.90;;;;;;5011973;28;20029;-42
2023/08/20 06:29:51;;;;;;;4.25;3.85;;;22.70;99.90;;;;;;5011875;28;20578;-42
2023/08/20 06:32:17;;;;;;;3.95;3.40;;;22.70;99.90;;;;;;5012042;28;20036;-41
2023/08/20 06:34:43;;;;;;;4.00;3.67;;;22.70;99.90;;;;;;5011991;28;20022;-40
2023/08/20 06:37:08;;;;;;;4.10;3.70;;;22.70;99.90;;;;;;5011984;28;20046;-39
2023/08/20 06:39:34;;;;;;;9.60;5.45;;;22.70;99.90;;;;;;5012270;28;20026;-39
2023/08/20 06:42:00;;;;;;;7.15;5.43;;;22.70;99.90;;;;;;5011935;28;20065;-42
2023/08/20 06:44:26;;;;;;;9.20;5.93;;;22.70;99.90;;;;;;5011781;28;20044;-42
2023/08/20 06:46:51;;;;;;;10.85;6.03;;;22.70;99.90;;;;;;5012105;28;20471;-40
2023/08/20 06:49:17;;;;;;;6.95;5.90;;;22.70;99.90;;;;;;5011512;28;20021;-40
2023/08/20 06:51:42;;;;;;;9.77;6.25;;;22.70;99.90;;;;;;5011781;28;20101;-40
2023/08/20 06:54:09;;;;;;;10.88;6.10;;;22.70;99.90;;;;;;5011741;28;20034;-41
2023/08/20 06:56:35;;;;;;;10.15;5.28;;;22.80;99.90;;;;;;5011680;28;20176;-42
2023/08/20 06:59:02;;;;;;;8.40;5.32;;;22.70;99.90;;;;;;5011623;28;20133;-43
2023/08/20 07:01:28;;;;;;;8.90;5.20;;;22.80;99.90;;;;;;5011871;28;20104;-43
2023/08/20 07:03:54;;;;;;;7.70;4.72;;;22.80;99.90;;;;;;5011703;28;20114;-45
2023/08/20 07:06:20;;;;;;;5.63;4.65;;;22.80;99.90;;;;;;5011582;28;20033;-40
2023/08/20 07:08:46;;;;;;;7.43;5.28;;;22.80;99.90;;;;;;5011496;28;20449;-40
2023/08/20 07:11:11;;;;;;;6.70;5.30;;;22.80;99.90;;;;;;5011468;28;20025;-36
2023/08/20 07:13:37;;;;;;;6.80;5.10;;;22.80;99.90;;;;;;5011921;28;20110;-40
2023/08/20 07:16:03;;;;;;;6.18;4.70;;;22.80;99.90;;;;;;5011391;28;20105;-37
2023/08/20 07:18:29;;;;;;;7.35;4.75;;;22.80;99.90;;;;;;5011459;28;20475;-44
2023/08/20 07:20:55;;;;;;;5.53;4.70;;;22.80;99.90;;;;;;5011329;28;20033;-44
2023/08/20 07:23:21;;;;;;;5.82;4.68;;;22.80;99.90;;;;;;5011642;28;20045;-40
2023/08/20 07:25:46;;;;;;;7.47;5.15;;;22.80;99.90;;;;;;5011708;28;20033;-40
2023/08/20 07:28:13;;;;;;;7.63;4.65;;;22.80;99.90;;;;;;5011289;28;20073;-44
2023/08/20 07:30:38;;;;;;;7.40;5.93;;;22.80;99.90;;;;;;5011007;28;20080;-42
2023/08/20 07:33:07;;;;;;;13.73;6.88;;;22.90;99.90;;;;;;5011299;28;20034;-43
2023/08/20 07:35:33;;;;;;;15.18;6.20;;;22.90;99.90;;;;;;5011435;28;20053;-42
2023/08/20 07:37:59;;;;;;;8.90;6.50;;;22.90;99.90;;;;;;5011196;28;20053;-41
2023/08/20 07:40:24;;;;;;;9.13;6.55;;;23.00;99.90;;;;;;5011411;28;20380;-40
2023/08/20 07:42:52;;;;;;;9.05;6.30;;;23.00;99.90;;;;;;5011269;28;20068;-43
2023/08/20 07:45:18;;;;;;;10.43;6.70;;;23.00;99.90;;;;;;5011028;28;20037;-38
2023/08/20 07:47:43;;;;;;;9.43;6.70;;;23.00;99.90;;;;;;5011098;28;20033;-41
2023/08/20 07:50:09;;;;;;;13.98;7.10;;;23.00;99.90;;;;;;5010985;28;20026;-39
2023/08/20 07:52:34;;;;;;;13.40;7.10;;;23.00;99.90;;;;;;5011219;28;20045;-41
2023/08/20 07:55:00;;;;;;;10.52;6.85;;;23.00;99.90;;;;;;5011173;28;20094;-39
2023/08/20 07:57:26;;;;;;;12.52;6.75;;;23.10;99.90;;;;;;4993486;28;20029;-44
2023/08/20 07:59:52;;;;;;;8.65;6.30;;;23.00;99.90;;;;;;5010771;28;20041;-40
2023/08/20 08:02:18;;;;;;;9.43;6.68;;;23.10;99.90;;;;;;5011103;28;20026;-42
2023/08/20 08:04:44;;;;;;;7.60;6.05;;;23.10;99.90;;;;;;5011086;28;20049;-39
2023/08/20 08:07:13;;;;;;;9.70;6.20;;;23.10;99.90;;;;;;5010960;28;20494;-41
2023/08/20 08:09:38;;;;;;;8.30;6.10;;;23.10;99.90;;;;;;5011872;28;20034;-39
2023/08/20 08:12:04;;;;;;;11.48;6.13;;;23.10;99.90;;;;;;5014766;28;20068;-38
2023/08/20 08:14:30;;;;;;;9.73;5.40;;;23.10;99.90;;;;;;5014492;28;20018;-40
2023/08/20 08:16:56;;;;;;;7.68;5.60;;;23.10;99.90;;;;;;5014602;28;20033;-40
2023/08/20 08:19:22;;;;;;;6.85;6.03;;;23.10;99.90;;;;;;5014354;28;20030;-42
2023/08/20 08:21:48;;;;;;;7.60;5.70;;;23.10;99.90;;;;;;5014502;28;20029;-39
2023/08/20 08:24:14;;;;;;;8.27;5.60;;;23.10;99.90;;;;;;5014476;28;20041;-38
2023/08/20 08:26:40;;;;;;;9.30;6.13;;;23.10;99.90;;;;;;5014171;28;20032;-40
2023/08/20 08:29:07;;;;;;;5.97;5.35;;;23.20;99.90;;;;;;5013958;28;20087;-40
2023/08/20 08:31:33;;;;;;;7.88;6.07;;;23.10;99.90;;;;;;5014313;28;20057;-38
2023/08/20 08:33:59;;;;;;;6.43;5.15;;;23.20;99.90;;;;;;5014263;28;20483;-40
2023/08/20 08:36:25;;;;;;;8.23;5.53;;;23.20;99.90;;;;;;5014001;28;20120;-40
2023/08/20 08:38:52;;;;;;;6.30;5.50;;;23.20;99.90;;;;;;5013996;28;20036;-42
2023/08/20 08:41:22;;;;;;;5.80;5.15;;;23.10;99.90;;;;;;4996448;28;20029;-42
2023/08/20 08:43:48;;;;;;;6.25;5.57;;;23.20;99.90;;;;;;5013942;28;20113;-45
2023/08/20 08:46:15;;;;;;;5.60;5.10;;;23.20;99.90;;;;;;5013843;28;20034;-41
2023/08/20 08:48:42;;;;;;;6.53;5.35;;;23.20;99.90;;;;;;5013899;28;20029;-40
2023/08/20 08:51:08;;;;;;;7.65;5.40;;;23.20;99.90;;;;;;5013785;28;20026;-40
2023/08/20 08:53:34;;;;;;;5.63;5.00;;;23.20;99.90;;;;;;5013915;28;20429;-44
2023/08/20 08:56:00;;;;;;;5.65;4.68;;;23.20;99.90;;;;;;5013657;28;20022;-41
2023/08/20 08:58:26;;;;;;;6.40;5.10;;;23.20;99.90;;;;;;4996113;28;20037;-40
2023/08/20 09:00:53;;;;;;;5.70;5.13;;;23.20;99.90;;;;;;4996182;28;20108;-41
2023/08/20 09:03:19;;;;;;;5.20;4.70;;;23.20;99.90;;;;;;5013631;28;20033;-40
2023/08/20 09:05:56;;;;;;;5.88;5.03;;;23.20;99.90;;;;;;5013631;28;20026;-40
2023/08/20 09:08:25;;;;;;;7.38;4.97;;;23.20;99.90;;;;;;5013632;28;20100;-39
2023/08/20 09:10:52;;;;;;;5.85;4.55;;;23.20;99.90;;;;;;5013219;28;20026;-38
2023/08/20 09:13:53;;;;;;;5.75;4.93;;;23.20;99.90;;;;;;5013401;28;20022;-38
2023/08/20 09:16:19;;;;;;;5.88;4.63;;;23.20;99.90;;;;;;4933543;29;20525;-42
2023/08/20 09:18:45;;;;;;;5.20;4.60;;;23.20;99.90;;;;;;4996551;28;20049;-40
2023/08/20 09:21:13;;;;;;;5.47;4.97;;;23.20;99.90;;;;;;5011936;28;20022;-41
2023/08/20 09:23:39;;;;;;;5.10;4.60;;;23.30;99.90;;;;;;5013290;28;20026;-41
2023/08/20 09:26:06;;;;;;;5.65;4.82;;;23.30;99.90;;;;;;5013061;28;20480;-41
2023/08/20 09:28:42;;;;;;;5.20;4.70;;;23.30;99.90;;;;;;5013177;28;20018;-42
2023/08/20 09:31:08;;;;;;;5.43;4.90;;;23.30;99.90;;;;;;5013020;28;20033;-40
2023/08/20 09:33:34;;;;;;;5.00;4.45;;;23.30;99.90;;;;;;5013050;28;20040;-40
2023/08/20 09:35:59;;;;;;;6.95;4.65;;;23.30;99.90;;;;;;5012824;28;20422;-45
2023/08/20 09:38:25;;;;;;;5.45;4.80;;;23.20;99.90;;;;;;5013533;28;20112;-43
2023/08/20 09:40:53;;;;;;;5.20;4.63;;;23.30;99.90;;;;;;5012786;28;20394;-41
2023/08/20 09:43:19;;;;;;;4.88;4.35;;;23.30;99.90;;;;;;5012924;28;20557;-40
2023/08/20 09:45:47;;;;;;;5.88;4.65;;;23.30;99.90;;;;;;5012869;28;20491;-42
2023/08/20 09:48:19;;;;;;;5.63;4.50;;;23.30;99.90;;;;;;5012714;28;20030;-44
2023/08/20 09:50:48;;;;;;;5.28;4.78;;;23.30;99.90;;;;;;5013061;28;20080;-44
2023/08/20 09:53:23;;;;;;;5.05;4.50;;;23.30;99.90;;;;;;4995171;28;20029;-38
2023/08/20 09:55:51;;;;;;;4.95;4.43;;;23.30;99.90;;;;;;5012849;28;20379;-39
2023/08/20 09:58:21;;;;;;;5.20;4.28;;;23.30;99.90;;;;;;5012715;28;20427;-39
2023/08/20 10:00:48;;;;;;;5.55;4.63;;;23.30;99.90;;;;;;4994665;28;20018;-38
2023/08/20 10:03:14;;;;;;;5.28;4.50;;;23.30;99.90;;;;;;5012563;28;20026;-44
2023/08/20 10:05:40;;;;;;;5.00;4.50;;;23.30;99.90;;;;;;5012488;28;20084;-38
2023/08/20 10:08:07;;;;;;;5.10;4.40;;;23.30;99.90;;;;;;5012419;28;20022;-42
2023/08/20 10:10:34;;;;;;;5.20;4.25;;;23.30;99.90;;;;;;5012152;28;20118;-41
2023/08/20 10:13:00;;;;;;;5.88;4.63;;;23.30;99.90;;;;;;4994776;28;20029;-38
2023/08/20 10:15:28;;;;;;;4.68;4.28;;;23.30;99.90;;;;;;5012216;28;20030;-42
2023/08/20 10:17:57;;;;;;;4.88;4.05;;;23.40;99.90;;;;;;5013017;28;20018;-44
2023/08/20 10:20:24;;;;;;;5.63;4.07;;;23.40;99.90;;;;;;5013706;28;20034;-45
2023/08/20 10:22:52;;;;;;;4.32;3.92;;;23.30;99.90;;;;;;4995848;28;20034;-47
2023/08/20 10:25:25;;;;;;;5.38;3.92;;;23.40;99.90;;;;;;5013260;28;20037;-42
2023/08/20 10:27:52;;;;;;;4.68;4.18;;;23.40;99.90;;;;;;5013761;28;20116;-41
2023/08/20 10:30:27;;;;;;;5.70;4.32;;;23.40;99.90;;;;;;5011869;28;20076;-40
2023/08/20 10:32:58;;;;;;;6.55;4.68;;;23.40;99.90;;;;;;5011750;28;20042;-41
2023/08/20 10:35:27;;;;;;;4.45;4.05;;;23.40;99.90;;;;;;5012057;28;20549;-41
2023/08/20 10:38:07;;;;;;;6.40;4.00;;;23.40;99.90;;;;;;5011885;28;20057;-40
2023/08/20 10:40:49;;;;;;;5.70;4.15;;;23.40;99.90;;;;;;5011754;28;20053;-43
2023/08/20 10:43:39;;;;;;;8.95;5.47;;;23.40;99.90;;;;;;5011889;28;20022;-39
2023/08/20 10:46:06;;;;;;;9.48;5.30;;;23.50;99.90;;;;;;5011739;28;20510;-37
2023/08/20 10:48:36;;;;;;;6.80;5.28;;;23.50;99.90;;;;;;5012211;28;20025;-41
2023/08/20 10:51:16;;;;;;;6.18;5.40;;;23.50;99.90;;;;;;5011877;28;20121;-41
2023/08/20 10:54:03;;;;;;;7.63;5.47;;;23.50;99.90;;;;;;5011813;28;20028;-42
2023/08/20 10:56:40;;;;;;;7.43;5.18;;;23.50;99.90;;;;;;5011160;28;20038;-42
2023/08/20 10:59:17;;;;;;;7.40;5.15;;;23.50;99.90;;;;;;5011705;28;20443;-39
2023/08/20 11:01:47;;;;;;;7.00;5.25;;;23.50;99.90;;;;;;5011715;28;20022;-40
2023/08/20 11:04:16;;;;;;;8.52;5.35;;;23.50;99.90;;;;;;5011607;28;20423;-41
2023/08/20 11:06:41;;;;;;;9.40;5.20;;;23.50;99.90;;;;;;5011603;28;20036;-41
2023/08/20 11:09:07;;;;;;;6.50;5.10;;;23.50;99.90;;;;;;5011253;28;20025;-43
2023/08/20 11:11:33;;;;;;;8.55;5.13;;;23.50;99.90;;;;;;5011456;28;20092;-37
2023/08/20 11:14:09;;;;;;;6.63;5.18;;;23.50;99.90;;;;;;4993899;28;20169;-40
2023/08/20 11:16:38;;;;;;;10.25;4.45;;;23.50;99.90;;;;;;5011598;28;20037;-41
2023/08/20 11:19:10;;;;;;;6.05;4.78;;;23.50;99.90;;;;;;5011276;28;20116;-42
2023/08/20 11:21:38;;;;;;;5.00;4.40;;;23.60;99.90;;;;;;5011498;28;20030;-44
2023/08/20 11:24:04;;;;;;;6.45;4.80;;;23.50;99.90;;;;;;5011300;28;20026;-44
2023/08/20 11:26:30;;;;;;;6.55;4.68;;;23.60;99.90;;;;;;5011304;28;20030;-41
2023/08/20 11:28:56;;;;;;;5.43;4.38;;;23.50;99.90;;;;;;5011264;28;20022;-39
2023/08/20 11:31:22;;;;;;;5.35;4.30;;;23.60;99.90;;;;;;5011330;28;20026;-42
2023/08/20 11:33:49;;;;;;;7.85;4.43;;;23.60;99.90;;;;;;5011743;28;20427;-40
2023/08/20 11:36:19;;;;;;;5.60;4.13;;;23.60;99.90;;;;;;5011172;28;20042;-40
2023/08/20 11:38:54;;;;;;;6.20;4.70;;;23.60;99.90;;;;;;5014744;28;20049;-42
2023/08/20 11:41:24;;;;;;;6.72;4.35;;;23.60;99.90;;;;;;5030933;28;20026;-42
2023/08/20 11:43:52;;;;;;;4.82;4.28;;;23.60;99.90;;;;;;5030998;28;20032;-41
2023/08/20 11:46:20;;;;;;;6.30;4.55;;;23.60;99.90;;;;;;5034375;28;20033;-40
2023/08/20 11:49:05;;;;;;;5.35;4.22;;;23.60;99.90;;;;;;5034740;28;20095;-41
2023/08/20 11:51:49;;;;;;;6.22;4.20;;;23.60;99.90;;;;;;5035047;28;20108;-40
2023/08/20 11:54:18;;;;;;;5.30;4.27;;;23.60;99.90;;;;;;5034790;28;20022;-42
2023/08/20 11:56:46;;;;;;;4.95;4.20;;;23.60;99.90;;;;;;5035062;28;20080;-48
2023/08/20 11:59:12;;;;;;;6.85;4.10;;;23.60;99.90;;;;;;5034969;28;20025;-40
2023/08/20 12:01:38;;;;;;;6.32;4.25;;;23.60;99.90;;;;;;5016776;28;20033;-42
2023/08/20 12:04:05;;;;;;;5.78;3.83;;;23.60;99.90;;;;;;5034581;28;20128;-42
2023/08/20 12:06:31;;;;;;;4.68;4.10;;;23.60;99.90;;;;;;5034416;28;20033;-38
2023/08/20 12:08:59;;;;;;;6.03;4.50;;;23.60;99.90;;;;;;5016557;28;20036;-39
2023/08/20 12:11:26;;;;;;;6.40;4.07;;;23.60;99.90;;;;;;5034539;28;20021;-42
2023/08/20 12:13:52;;;;;;;4.65;4.15;;;23.70;99.90;;;;;;5034486;28;20105;-40
2023/08/20 12:16:18;;;;;;;5.70;4.28;;;23.60;99.90;;;;;;5034772;28;20100;-41
2023/08/20 12:18:46;;;;;;;5.68;3.85;;;23.70;99.90;;;;;;5034264;28;20539;-44
2023/08/20 12:21:11;;;;;;;6.05;4.20;;;23.60;99.90;;;;;;5034196;28;20056;-43
2023/08/20 12:23:37;;;;;;;5.45;4.25;;;23.60;99.90;;;;;;5034143;28;20068;-40
2023/08/20 12:26:03;;;;;;;4.28;3.85;;;23.70;99.90;;;;;;5034112;28;20021;-40
2023/08/20 12:28:29;;;;;;;6.07;3.60;;;23.70;99.90;;;;;;5034052;28;20491;-43
2023/08/20 12:30:55;;;;;;;5.85;4.07;;;23.70;99.90;;;;;;5033892;28;20049;-40
2023/08/20 12:33:20;;;;;;;4.72;4.22;;;23.70;99.90;;;;;;5033973;28;20021;-42
2023/08/20 12:35:46;;;;;;;5.75;4.13;;;23.70;99.90;;;;;;5034050;28;20017;-42
2023/08/20 12:38:12;;;;;;;4.70;3.80;;;23.70;99.90;;;;;;5034065;28;20037;-46
2023/08/20 12:40:38;;;;;;;4.30;3.90;;;23.70;99.90;;;;;;5033695;28;20021;-42
2023/08/20 12:43:04;;;;;;;4.10;3.70;;;23.70;99.90;;;;;;5033851;28;20095;-40
2023/08/20 12:45:30;;;;;;;4.47;3.65;;;23.70;99.90;;;;;;5033730;28;20072;-38